New York, NY

09:35 PM EDT del 26 Maggio 2015 (GMT -0400)
La Guardia | | Change Station
CLOSE
Current Station
Aeroporto
Location: New York,
Altitudine: 30 ft
Stazioni meteo nelle vicinanze

Alt. 30 ft 40.78 °N, 73.88 °W | Updated 44 minutes ago

Sereno
Sereno
72 °F
Sembra 72 °F
N
9
Vento Variabile Vento da Sud

Oggi
Massima -- | Minima -- °F
--% Possibilità di precip.
Ieri
Massima -- | Minima -- °F
Precip. -- in
5:30 AM 8:16 PM
Gobba a ponente, 63% visible
Pressione 30.13 in
Visibilità 10.0 miglia
Nuvole Nubi sparse 15000 ft
Molto nuvoloso 25000 ft
Punto di rugiada 59 °F
Umidità 64%
Piovosità 0.00 in
Spessore del manto nevoso Non disponibile.
Raggi UV 0 fuori da 12
Polline 9.30 fuori da 12
Qualità dell'aria Non disponibile.
Flu Activity Widespread
METAR KLGA 270051Z 18008KT 10SM SCT150 BKN250 22/15 A3013 RMK AO2 SLP202 T02220150

More Conditions Fewer Conditions

Pressione 30.13 in
Visibilità 10.0 miglia
Nuvole Nubi sparse 15000 ft
Molto nuvoloso 25000 ft
Punto di rugiada 59 °F
Umidità 64%
Piovosità 0.00 in
Spessore del manto nevoso Non disponibile.
Raggi UV 0 fuori da 12
Polline 9.30 fuori da 12
Qualità dell'aria Non disponibile.
Flu Activity Widespread
METAR KLGA 270051Z 18008KT 10SM SCT150 BKN250 22/15 A3013 RMK AO2 SLP202 T02220150

More Conditions Fewer Conditions

10-Day Weather Forecast

Almanac

Astronomia

May. 26, 2015 Alba Tramonto
Ora attuale
Crepuscolo civile
Crepuscolo nautico
Crepuscolo astronomico
Luna
Estensione della luce visibile
Lunghezza del giorno
Tomorrow will be .
, % of the Moon is Illuminated

Gli estremi di oggi

State Highs State Lows

Community

WunderPhotos

Upload Photos

1,824,546 foto caricate!

WunderBlogs® & News

Nearby

Qualità dell'aria

  Qualità dell'aria Indice AQ Inquinante
Not available.

Profondità neve

Stazione Profondità Altitudine

Attività sismica

Città  Distanza Mag. Data & Ora
Minimo Magnitudo Mostrato è 2.5.

Temperature delle acque costiere

Località Temperatura

Stations

Stazioni meteo nelle vicinanze

Ubicazione della stazione Temp. Raffreddamento del vento Punto di rugiada Umidità Vento Precip. Alt. Aggiornato Tipo